Meteo Giornale » Osservazioni meteo Svizzera » Locarno

ore: 07:50 - Osservazioni Meteo Locarno
Lat. 46° 10' N Lon. 8° 53' E Alt. 600 metri s.l.m.

nuvoloso Europe/Zurich

15 °C

Nuvoloso

Temp. 24 Ore

12 °C

22 °C

Nord

1.8 Km/h

Dew point 13 °C

Umidità 87 %

Visibilità  10 Km

Il sole sorge alle ore 05:34

Il sole tramonta alle ore 21:10

Data e Ora Cielo e Fenomeni T °C DP °C Um. % Pres. hPa Vis. km Vento km/h
Oggi h: 07:50 nuvoloso Nuvoloso 15 13 87 1019 10 N 1.8
Oggi h: 07:20 molto_nuvoloso Molto Nuvoloso 14 13 93 1019 10 N 5.5
Oggi h: 06:50 nuvoloso Nuvoloso 13 12 93 1019 10 N/NE 7.4
Oggi h: 05:50 sereno Sereno 12 12 100 1018 10 N 3.7
Oggi h: 05:20 sereno Sereno 12 12 100 1018 10 N 0
Oggi h: 04:50 poco_nuvoloso Poco Nuvoloso 12 12 100 1018 10 N 0
Oggi h: 04:20 poco_nuvoloso Poco Nuvoloso 12 12 100 1018 10 N 0
Oggi h: 03:50 poco_nuvoloso Poco Nuvoloso 12 12 100 1018 10 N 3.7
Oggi h: 03:20 sereno Sereno 13 13 100 1018 10 N 0
Oggi h: 02:50 sereno Sereno 13 13 100 1017 10 N 0
Oggi h: 02:20 sereno Sereno 13 13 100 1017 10 N 0
Oggi h: 01:50 sereno Sereno 13 13 100 1017 10 N 0
Oggi h: 01:20 sereno Sereno 14 14 100 1017 10 N 0
Oggi h: 00:50 sereno Sereno 14 14 100 1016 10 N 1.8
Oggi h: 00:20 sereno Sereno 15 13 87 1016 10 N 0
Ieri h: 23:50 sereno Sereno 14 14 100 1016 10 N 0
Ieri h: 22:50 sereno Sereno 16 14 87 1016 10 N 0
Ieri h: 22:20 sereno Sereno 16 14 87 1015 10 N 0
Ieri h: 21:50 sereno Sereno 17 14 82 1015 10 N 0
Ieri h: 20:50 poco_nuvoloso Poco Nuvoloso 19 13 68 1014 10 N 0
Ieri h: 20:20 sereno Sereno 21 13 60 1014 10 N 3.7
Ieri h: 19:50 sereno Sereno 22 12 53 1013 10 N 3.7
Ieri h: 19:20 sereno Sereno 22 12 53 1013 10 N 5.5
Ieri h: 18:50 sereno Sereno 22 13 56 1013 10 N 5.5
Ieri h: 17:50 poco_nuvoloso Poco Nuvoloso 22 12 53 1014 10 O 9.3
Ieri h: 16:50 poco_nuvoloso Poco Nuvoloso 22 12 53 1014 10 O 9.3
Ieri h: 16:20 sereno Sereno 22 11 49 1014 10 O/NO 11.1
Ieri h: 15:50 sereno Sereno 21 12 56 1014 10 O 11.1
Ieri h: 15:20 sereno Sereno 21 12 56 1014 10 O/SO 9.3
Ieri h: 14:50 sereno Sereno 21 11 52 1014 10 O/SO 9.3
Ieri h: 14:20 sereno Sereno 20 12 59 1015 10 O 11.1
Ieri h: 13:50 sereno Sereno 20 11 56 1015 10 O 13
Ieri h: 13:20 sereno Sereno 20 12 59 1016 10 O 11.1
Ieri h: 12:50 sereno Sereno 19 11 59 1016 10 O/SO 13
Ieri h: 12:20 poco_nuvoloso Poco Nuvoloso 19 12 63 1016 10 O 9.3
Ieri h: 11:50 poco_nuvoloso Poco Nuvoloso 18 11 63 1017 10 O 11.1
Ieri h: 11:20 poco_nuvoloso Poco Nuvoloso 18 14 77 1017 10 O/SO 7.4
Ieri h: 10:50 nuvoloso Nuvoloso 17 12 72 1017 10 NO 7.4
Ieri h: 10:20 nuvoloso Nuvoloso 17 12 72 1017 10 N 5.5
Ieri h: 09:50 nuvoloso Nuvoloso 16 14 87 1017 10 N 5.5
Ieri h: 09:20 nuvoloso Nuvoloso 16 14 87 1017 10 N 3.7
Ieri h: 08:50 nuvoloso Nuvoloso 15 14 93 1017 10 N 0